createdAt,value
2018-07-16T00:01:08.213Z,52.70
2018-07-16T00:03:36.857Z,52.71
2018-07-16T00:06:05.586Z,53.15
2018-07-16T00:08:34.280Z,52.95
2018-07-16T00:11:02.866Z,53.59
2018-07-16T00:13:31.562Z,53.07
2018-07-16T00:16:00.221Z,53.10
2018-07-16T00:18:28.915Z,53.52
2018-07-16T00:20:57.853Z,53.69
2018-07-16T00:23:26.611Z,54.67
2018-07-16T00:25:55.383Z,54.46
2018-07-16T00:28:24.741Z,53.97
2018-07-16T00:30:53.987Z,52.96
2018-07-16T00:33:22.668Z,53.28
2018-07-16T00:35:51.415Z,53.26
2018-07-16T00:38:20.091Z,53.38
2018-07-16T00:40:48.746Z,53.40
2018-07-16T00:43:17.446Z,53.31
2018-07-16T00:45:45.983Z,52.78
2018-07-16T00:48:14.560Z,52.28
2018-07-16T00:50:43.269Z,52.73
2018-07-16T00:53:11.844Z,52.45
2018-07-16T00:55:40.633Z,52.69
2018-07-16T00:58:09.379Z,53.02
2018-07-16T01:00:38.035Z,52.94
2018-07-16T01:03:06.756Z,52.94
2018-07-16T01:05:35.540Z,53.59
2018-07-16T01:08:04.164Z,53.84
2018-07-16T01:10:32.704Z,53.30
2018-07-16T01:13:01.569Z,53.24
2018-07-16T01:15:30.275Z,52.78
2018-07-16T01:17:59.027Z,53.85
2018-07-16T01:20:28.087Z,53.89
2018-07-16T01:22:56.743Z,53.93
2018-07-16T01:25:25.491Z,53.10
2018-07-16T01:27:54.324Z,53.14
2018-07-16T01:30:22.938Z,53.95
2018-07-16T01:32:51.551Z,53.28
2018-07-16T01:35:20.314Z,55.72
2018-07-16T01:37:49.215Z,55.52
2018-07-16T01:40:17.956Z,54.46
2018-07-16T01:42:46.699Z,54.28
2018-07-16T01:45:15.326Z,54.66
2018-07-16T01:47:43.964Z,54.48
2018-07-16T01:50:12.759Z,54.85
2018-07-16T01:52:41.394Z,55.83
2018-07-16T01:55:10.241Z,55.38
2018-07-16T01:57:39.369Z,55.88
2018-07-16T02:00:08.008Z,56.22
2018-07-16T02:02:36.709Z,55.39
2018-07-16T02:05:05.619Z,56.50
2018-07-16T02:07:34.319Z,56.79
2018-07-16T02:10:02.933Z,57.43
2018-07-16T02:12:31.973Z,56.13
2018-07-16T02:15:00.619Z,56.57
2018-07-16T02:17:29.304Z,56.73
2018-07-16T02:19:58.025Z,55.68
2018-07-16T02:22:26.744Z,56.31
2018-07-16T02:24:55.386Z,57.01
2018-07-16T02:27:24.243Z,56.89
2018-07-16T02:29:53.028Z,56.76
2018-07-16T02:32:21.689Z,56.33
2018-07-16T02:34:50.340Z,56.52
2018-07-16T02:37:18.965Z,57.00
2018-07-16T02:39:47.609Z,56.31
2018-07-16T02:42:16.518Z,56.06
2018-07-16T02:44:45.128Z,57.29
2018-07-16T02:47:13.691Z,56.82
2018-07-16T02:49:42.735Z,57.68
2018-07-16T02:52:11.375Z,57.17
2018-07-16T02:54:40.016Z,57.12
2018-07-16T02:57:08.839Z,58.05
2018-07-16T02:59:37.483Z,57.57
2018-07-16T03:02:06.632Z,58.27
2018-07-16T03:04:35.287Z,58.04
2018-07-16T03:07:03.996Z,58.51
2018-07-16T03:09:32.647Z,58.39
2018-07-16T03:12:01.456Z,58.78
2018-07-16T03:14:30.299Z,58.60
2018-07-16T03:16:59.023Z,59.63
2018-07-16T03:19:28.128Z,59.42
2018-07-16T03:21:57.051Z,58.70
2018-07-16T03:24:25.736Z,59.76
2018-07-16T03:26:54.695Z,59.22
2018-07-16T03:29:23.620Z,59.92
2018-07-16T03:31:52.420Z,62.06
2018-07-16T03:34:21.184Z,61.96
2018-07-16T03:36:49.875Z,61.41
2018-07-16T03:39:18.571Z,60.48
2018-07-16T03:41:47.545Z,60.57
2018-07-16T03:44:16.282Z,61.45
2018-07-16T03:46:44.876Z,62.27
2018-07-16T03:49:13.595Z,62.74
2018-07-16T03:51:42.356Z,61.56
2018-07-16T03:54:10.927Z,61.36
2018-07-16T03:56:39.691Z,62.16
2018-07-16T03:59:08.361Z,61.80
2018-07-16T04:01:37.205Z,62.43
2018-07-16T04:04:06.053Z,61.88
2018-07-16T04:06:34.674Z,62.95
2018-07-16T04:09:03.359Z,62.33
2018-07-16T04:11:32.079Z,63.33
2018-07-16T04:14:01.038Z,62.95
2018-07-16T04:16:29.846Z,63.15
2018-07-16T04:18:58.700Z,63.32
2018-07-16T04:21:27.276Z,65.73
2018-07-16T04:23:56.062Z,65.39
2018-07-16T04:26:24.921Z,64.18
2018-07-16T04:28:53.650Z,63.50
2018-07-16T04:31:22.422Z,62.41
2018-07-16T04:33:51.268Z,62.12
2018-07-16T04:36:19.991Z,62.30
2018-07-16T04:38:48.715Z,62.77
2018-07-16T04:41:17.321Z,62.45
2018-07-16T04:43:45.973Z,64.62
2018-07-16T04:46:14.551Z,65.55
2018-07-16T04:48:43.431Z,64.46
2018-07-16T04:51:12.051Z,64.33
2018-07-16T04:53:40.813Z,63.74
2018-07-16T04:56:09.620Z,64.02
2018-07-16T04:58:38.363Z,66.19
2018-07-16T05:01:07.514Z,66.98
2018-07-16T05:03:36.232Z,66.35
2018-07-16T05:06:04.952Z,66.15
2018-07-16T05:08:34.090Z,65.60
2018-07-16T05:11:02.990Z,65.90
2018-07-16T05:13:31.884Z,66.03
2018-07-16T05:16:00.628Z,64.69
2018-07-16T05:18:29.439Z,64.45
2018-07-16T05:20:58.166Z,63.06
2018-07-16T05:23:26.800Z,63.13
2018-07-16T05:25:55.629Z,64.86
2018-07-16T05:28:24.417Z,63.73
2018-07-16T05:30:53.050Z,63.30
2018-07-16T05:33:21.859Z,63.94
2018-07-16T05:35:50.539Z,64.41
2018-07-16T05:38:19.349Z,62.91
2018-07-16T05:40:48.167Z,64.01
2018-07-16T05:43:16.891Z,63.46
2018-07-16T05:45:45.581Z,63.16
2018-07-16T05:48:14.184Z,62.27
2018-07-16T05:50:42.791Z,61.12
2018-07-16T05:53:11.412Z,62.78
2018-07-16T05:55:40.172Z,63.25
2018-07-16T05:58:08.922Z,61.58
2018-07-16T06:00:37.584Z,61.90
2018-07-16T06:03:07.139Z,61.86
2018-07-16T06:05:35.774Z,62.25
2018-07-16T06:08:04.584Z,60.79
2018-07-16T06:10:33.496Z,58.88
2018-07-16T06:13:02.242Z,59.69
2018-07-16T06:15:30.887Z,60.12
2018-07-16T06:17:59.611Z,58.83
2018-07-16T06:20:28.256Z,58.89
2018-07-16T06:22:57.028Z,58.14
2018-07-16T06:25:25.830Z,58.95
2018-07-16T06:27:55.480Z,58.89
2018-07-16T06:30:24.578Z,58.00
2018-07-16T06:32:55.531Z,58.00
2018-07-16T06:35:25.101Z,57.91
2018-07-16T06:37:54.956Z,56.52
2018-07-16T06:40:25.509Z,55.10
2018-07-16T06:42:55.299Z,55.54
2018-07-16T06:45:24.139Z,54.86
2018-07-16T06:47:53.752Z,53.14
2018-07-16T06:50:23.854Z,54.63
2018-07-16T06:52:53.851Z,53.16
2018-07-16T06:55:25.301Z,51.31
2018-07-16T06:57:55.908Z,52.16
2018-07-16T07:00:26.611Z,50.29
2018-07-16T07:02:56.876Z,50.86
2018-07-16T07:05:25.419Z,50.59
2018-07-16T07:07:54.321Z,50.07
2018-07-16T07:10:23.169Z,50.20
2018-07-16T07:12:51.947Z,49.31
2018-07-16T07:15:21.043Z,49.45
2018-07-16T07:17:50.214Z,48.89
2018-07-16T07:20:19.899Z,48.04
2018-07-16T07:22:50.296Z,47.65
2018-07-16T07:25:18.999Z,46.95
2018-07-16T07:27:47.732Z,46.45
2018-07-16T07:30:16.479Z,46.80
2018-07-16T07:32:45.223Z,46.21
2018-07-16T07:35:13.986Z,45.79
2018-07-16T07:37:42.645Z,46.15
2018-07-16T07:40:11.255Z,46.68
2018-07-16T07:42:40.003Z,45.65
2018-07-16T07:45:08.835Z,47.04
2018-07-16T07:47:37.671Z,47.55
2018-07-16T07:50:06.272Z,48.30
2018-07-16T07:52:34.984Z,47.13
2018-07-16T07:55:04.036Z,44.21
2018-07-16T07:57:32.407Z,41.54
2018-07-16T08:00:01.376Z,38.79
2018-07-16T08:02:30.147Z,39.31
2018-07-16T08:04:59.107Z,38.67
2018-07-16T08:07:28.066Z,37.95
2018-07-16T08:09:56.807Z,38.41
2018-07-16T08:12:25.483Z,37.85
2018-07-16T08:14:54.191Z,37.80
2018-07-16T08:17:23.007Z,37.42
2018-07-16T08:19:51.690Z,37.44
2018-07-16T08:22:20.598Z,36.06
2018-07-16T08:24:49.187Z,36.21
2018-07-16T08:27:18.041Z,36.68
2018-07-16T08:29:46.776Z,36.88
2018-07-16T08:32:15.352Z,36.34
2018-07-16T08:34:44.016Z,35.30
2018-07-16T08:37:12.723Z,34.36
2018-07-16T08:39:41.648Z,34.32
2018-07-16T08:42:10.385Z,35.25
2018-07-16T08:44:39.111Z,36.33
2018-07-16T08:47:07.744Z,35.16
2018-07-16T08:49:36.477Z,35.86
2018-07-16T08:52:05.307Z,35.50
2018-07-16T08:54:33.955Z,34.79
2018-07-16T08:57:02.702Z,34.29
2018-07-16T08:59:31.556Z,36.14
2018-07-16T09:02:00.275Z,34.82
2018-07-16T09:04:29.004Z,35.04
2018-07-16T09:06:57.838Z,35.83
2018-07-16T09:09:26.477Z,35.07
2018-07-16T09:11:55.184Z,35.44
2018-07-16T09:14:23.904Z,34.89
2018-07-16T09:16:52.594Z,35.13
2018-07-16T09:19:21.378Z,34.41
2018-07-16T09:21:50.071Z,32.20
2018-07-16T09:24:18.963Z,31.56
2018-07-16T09:26:47.584Z,32.80
2018-07-16T09:29:16.311Z,29.23
2018-07-16T09:31:44.851Z,30.84
2018-07-16T09:34:13.543Z,27.82
2018-07-16T09:36:42.251Z,28.37
2018-07-16T09:39:10.988Z,29.30
2018-07-16T09:41:40.520Z,32.71
2018-07-16T09:44:09.574Z,32.71
2018-07-16T09:46:38.198Z,33.32
2018-07-16T09:49:06.888Z,33.48
2018-07-16T09:51:35.487Z,31.30
2018-07-16T09:54:04.076Z,29.17
2018-07-16T09:56:32.647Z,25.21
2018-07-16T09:59:01.383Z,24.48
2018-07-16T10:01:35.244Z,22.49
2018-07-16T10:04:04.371Z,22.73
2018-07-16T10:06:33.254Z,21.21
2018-07-16T10:09:01.802Z,22.91
2018-07-16T10:11:30.536Z,23.93
2018-07-16T10:13:59.291Z,21.36
2018-07-16T10:16:28.116Z,22.35
2018-07-16T10:18:57.087Z,21.21
2018-07-16T10:21:25.755Z,19.22
2018-07-16T10:23:54.419Z,19.44
2018-07-16T10:26:23.352Z,18.83
2018-07-16T10:28:52.023Z,18.86
2018-07-16T10:31:20.601Z,18.39
2018-07-16T10:33:49.655Z,19.02
2018-07-16T10:36:18.824Z,18.37
2018-07-16T10:38:47.463Z,17.99
2018-07-16T10:41:16.116Z,18.15
2018-07-16T10:43:44.730Z,17.71
2018-07-16T10:46:13.410Z,16.34
2018-07-16T10:48:42.455Z,16.90
2018-07-16T10:51:11.021Z,15.07
2018-07-16T10:53:39.733Z,15.49
2018-07-16T10:56:08.460Z,16.73
2018-07-16T10:58:37.043Z,16.05
2018-07-16T11:01:06.193Z,14.81
2018-07-16T11:03:34.924Z,14.77
2018-07-16T11:06:09.296Z,15.65
2018-07-16T11:08:37.965Z,15.16
2018-07-16T11:11:06.825Z,15.70
2018-07-16T11:13:35.431Z,13.96
2018-07-16T11:16:04.048Z,14.54
2018-07-16T11:18:32.790Z,13.74
2018-07-16T11:21:01.588Z,12.07
2018-07-16T11:23:30.283Z,12.58
2018-07-16T11:25:58.990Z,12.21
2018-07-16T11:28:27.751Z,13.04
2018-07-16T11:30:56.904Z,12.71
2018-07-16T11:33:25.531Z,13.54
2018-07-16T11:35:54.296Z,12.57
2018-07-16T11:38:22.801Z,12.85
2018-07-16T11:40:51.426Z,11.66
2018-07-16T11:43:20.198Z,13.27
2018-07-16T11:45:48.843Z,12.97
2018-07-16T11:48:17.474Z,13.97
2018-07-16T11:50:46.191Z,12.48
2018-07-16T11:53:14.764Z,13.98
2018-07-16T11:55:43.643Z,13.06
2018-07-16T11:58:12.353Z,12.87
2018-07-16T12:00:41.132Z,12.75
2018-07-16T12:03:10.227Z,12.84
2018-07-16T12:05:39.105Z,11.41
2018-07-16T12:08:08.344Z,12.67
2018-07-16T12:10:37.245Z,11.43
2018-07-16T12:13:06.154Z,12.18
2018-07-16T12:15:34.927Z,10.69
2018-07-16T12:18:03.631Z,10.51
2018-07-16T12:20:32.716Z,11.14
2018-07-16T12:23:01.339Z,12.40
2018-07-16T12:25:29.964Z,11.40
2018-07-16T12:27:58.708Z,12.48
2018-07-16T12:30:27.336Z,11.50
2018-07-16T12:32:56.652Z,11.73
2018-07-16T12:35:25.284Z,10.59
2018-07-16T12:37:54.004Z,11.85
2018-07-16T12:40:22.728Z,11.25
2018-07-16T12:42:51.332Z,11.26
2018-07-16T12:45:20.052Z,10.71
2018-07-16T12:47:48.707Z,10.29
2018-07-16T12:50:17.386Z,11.00
2018-07-16T12:52:46.144Z,11.22
2018-07-16T12:55:14.952Z,10.97
2018-07-16T12:57:44.150Z,10.23
2018-07-16T13:00:12.783Z,9.89
2018-07-16T13:02:41.441Z,11.18
2018-07-16T13:05:10.206Z,12.88
2018-07-16T13:07:38.839Z,12.66
2018-07-16T13:10:07.879Z,12.59
2018-07-16T13:12:36.563Z,12.39
2018-07-16T13:15:05.477Z,12.59
2018-07-16T13:17:34.231Z,13.85
2018-07-16T13:20:02.904Z,12.49
2018-07-16T13:22:31.623Z,14.10
2018-07-16T13:25:00.472Z,12.88
2018-07-16T13:27:29.174Z,11.02
2018-07-16T13:29:58.118Z,12.61
2018-07-16T13:32:26.743Z,12.06
2018-07-16T13:34:55.628Z,12.40
2018-07-16T13:37:24.363Z,13.63
2018-07-16T13:39:53.048Z,14.13
2018-07-16T13:42:21.716Z,13.42
2018-07-16T13:44:50.440Z,14.26
2018-07-16T13:47:19.572Z,12.37
2018-07-16T13:49:48.312Z,12.04
2018-07-16T13:52:16.932Z,13.89
2018-07-16T13:54:45.643Z,15.80
2018-07-16T13:57:14.356Z,15.95
2018-07-16T13:59:43.078Z,15.33
2018-07-16T14:02:11.749Z,16.53
2018-07-16T14:04:40.949Z,15.64
2018-07-16T14:07:09.589Z,14.57
2018-07-16T14:09:38.223Z,14.65
2018-07-16T14:12:07.831Z,13.45
2018-07-16T14:14:36.716Z,13.63
2018-07-16T14:17:05.303Z,15.22
2018-07-16T14:19:35.912Z,13.93
2018-07-16T14:22:05.161Z,16.21
2018-07-16T14:24:34.215Z,15.99
2018-07-16T14:27:03.001Z,16.15
2018-07-16T14:29:31.951Z,16.72
2018-07-16T14:32:00.643Z,16.54
2018-07-16T14:34:29.193Z,16.38
2018-07-16T14:36:57.919Z,16.35
2018-07-16T14:39:26.639Z,16.15
2018-07-16T14:41:55.288Z,17.81
2018-07-16T14:44:24.056Z,16.14
2018-07-16T14:46:52.775Z,17.08
2018-07-16T14:49:21.509Z,16.88
2018-07-16T14:51:50.339Z,16.00
2018-07-16T14:54:19.103Z,14.55
2018-07-16T14:56:47.864Z,16.11
2018-07-16T14:59:16.633Z,15.84
2018-07-16T15:01:45.515Z,17.10
2018-07-16T15:04:14.136Z,16.69
2018-07-16T15:06:43.055Z,17.45
2018-07-16T15:09:12.279Z,16.28
2018-07-16T15:11:40.943Z,16.39
2018-07-16T15:14:10.056Z,17.10
2018-07-16T15:16:38.779Z,18.79
2018-07-16T15:19:07.626Z,20.32
2018-07-16T15:21:37.808Z,20.61
2018-07-16T15:24:06.696Z,21.82
2018-07-16T15:26:36.183Z,22.03
2018-07-16T15:29:05.155Z,21.61
2018-07-16T15:31:33.947Z,22.25
2018-07-16T15:34:03.560Z,23.64
2018-07-16T15:36:32.896Z,23.51
2018-07-16T15:39:01.668Z,23.16
2018-07-16T15:41:31.173Z,23.49
2018-07-16T15:44:00.462Z,23.16
2018-07-16T15:46:29.888Z,23.63
2018-07-16T15:48:58.633Z,22.96
2018-07-16T15:51:27.777Z,23.78
2018-07-16T15:53:56.432Z,23.58
2018-07-16T15:56:25.100Z,23.82
2018-07-16T15:58:53.996Z,25.17
2018-07-16T16:01:22.619Z,26.07
2018-07-16T16:55:37.856Z,26.82
2018-07-16T16:58:06.412Z,27.00
2018-07-16T17:00:34.955Z,27.22
2018-07-16T17:03:04.208Z,26.69
2018-07-16T17:05:32.803Z,27.27
2018-07-16T17:08:01.359Z,26.37
2018-07-16T17:10:29.892Z,26.90
2018-07-16T17:12:58.524Z,26.56
2018-07-16T17:15:27.117Z,26.06
2018-07-16T17:17:55.700Z,27.87
2018-07-16T17:20:24.604Z,27.40
2018-07-16T17:22:54.191Z,27.40
2018-07-16T17:25:22.994Z,26.97
2018-07-16T17:27:51.809Z,27.80
2018-07-16T17:30:20.372Z,28.02
2018-07-16T17:32:49.076Z,27.39
2018-07-16T17:35:17.655Z,28.36
2018-07-16T17:37:46.240Z,27.70
2018-07-16T17:40:14.885Z,28.21
2018-07-16T17:42:44.362Z,28.16
2018-07-16T17:45:12.970Z,28.16
2018-07-16T17:47:41.527Z,27.75
2018-07-16T17:50:10.064Z,28.71
2018-07-16T17:52:38.635Z,28.26
2018-07-16T17:55:07.365Z,28.46
2018-07-16T17:57:36.192Z,28.88
2018-07-16T18:00:04.991Z,28.69
2018-07-16T18:02:33.569Z,28.95
2018-07-16T18:05:02.374Z,28.70
2018-07-16T18:07:30.964Z,29.11
2018-07-16T18:09:59.632Z,29.93
2018-07-16T18:12:28.285Z,29.13
2018-07-16T18:14:57.081Z,29.05
2018-07-16T18:17:25.699Z,29.15
2018-07-16T18:19:54.371Z,29.53
2018-07-16T18:22:23.105Z,30.37
2018-07-16T18:24:51.811Z,30.03
2018-07-16T18:27:20.379Z,30.52
2018-07-16T18:29:48.995Z,30.04
2018-07-16T18:32:17.776Z,30.19
2018-07-16T18:34:46.788Z,31.11
2018-07-16T18:37:15.678Z,30.66
2018-07-16T18:39:44.367Z,31.54
2018-07-16T18:42:12.963Z,30.78
2018-07-16T18:44:41.504Z,31.56
2018-07-16T18:47:10.231Z,32.04
2018-07-16T18:49:38.759Z,32.91
2018-07-16T18:52:07.307Z,32.63
2018-07-16T18:54:35.978Z,32.08
2018-07-16T18:57:04.581Z,33.03
2018-07-16T18:59:33.226Z,33.32
2018-07-16T19:02:01.828Z,33.49
2018-07-16T19:04:31.190Z,34.58
2018-07-16T19:07:04.828Z,34.53
2018-07-16T19:09:34.085Z,33.89
2018-07-16T19:12:02.764Z,34.15
2018-07-16T19:14:31.680Z,35.00
2018-07-16T19:17:00.508Z,34.30
2018-07-16T19:19:29.068Z,35.18
2018-07-16T19:21:57.613Z,35.20
2018-07-16T19:24:26.459Z,35.11
2018-07-16T19:26:55.123Z,35.39
2018-07-16T19:29:23.658Z,35.59
2018-07-16T19:31:52.215Z,35.93
2018-07-16T19:34:20.788Z,36.51
2018-07-16T19:36:49.505Z,36.32
2018-07-16T19:39:19.138Z,36.62
2018-07-16T19:41:47.615Z,36.82
2018-07-16T19:44:16.700Z,36.87
2018-07-16T19:46:45.236Z,37.94
2018-07-16T19:49:14.880Z,37.78
2018-07-16T19:51:43.537Z,38.71
2018-07-16T19:54:12.463Z,38.66
2018-07-16T19:56:41.020Z,38.69
2018-07-16T19:59:09.568Z,39.28
2018-07-16T20:01:38.495Z,40.66
2018-07-16T20:04:07.070Z,39.96
2018-07-16T20:06:35.654Z,39.98
2018-07-16T20:09:05.152Z,40.71
2018-07-16T20:11:34.580Z,41.02
2018-07-16T20:14:03.166Z,40.74
2018-07-16T20:16:41.676Z,40.39
2018-07-16T20:19:10.719Z,40.30
2018-07-16T20:21:39.267Z,39.61
2018-07-16T20:24:07.932Z,39.82
2018-07-16T20:26:36.521Z,39.82
2018-07-16T20:29:05.095Z,40.32
2018-07-16T20:31:33.836Z,39.74
2018-07-16T20:34:02.401Z,40.00
2018-07-16T20:36:31.339Z,39.86
2018-07-16T20:39:00.045Z,41.96
2018-07-16T20:41:28.588Z,41.23
2018-07-16T20:44:00.567Z,41.88
2018-07-16T20:46:29.174Z,41.44
2018-07-16T20:48:57.764Z,41.27
2018-07-16T20:51:26.355Z,42.29
2018-07-16T20:53:54.929Z,41.71
2018-07-16T20:56:23.529Z,41.22
2018-07-16T20:58:52.077Z,41.83
2018-07-16T21:01:20.644Z,41.02
2018-07-16T21:03:49.240Z,40.29
2018-07-16T21:06:17.804Z,40.79
2018-07-16T21:08:46.392Z,42.31
2018-07-16T21:11:15.073Z,41.95
2018-07-16T21:13:43.628Z,41.24
2018-07-16T21:16:12.230Z,41.47
2018-07-16T21:18:40.789Z,41.65
2018-07-16T21:21:09.552Z,41.06
2018-07-16T21:23:38.174Z,41.35
2018-07-16T21:26:06.822Z,41.70
2018-07-16T21:28:35.387Z,42.26
2018-07-16T21:31:04.044Z,42.29
2018-07-16T21:33:33.200Z,41.45
2018-07-16T21:36:01.741Z,42.73
2018-07-16T21:38:30.318Z,43.62
2018-07-16T21:40:58.902Z,43.26
2018-07-16T21:43:28.050Z,43.88
2018-07-16T21:45:56.733Z,45.11
2018-07-16T21:48:25.316Z,45.12
2018-07-16T21:50:53.940Z,44.08
2018-07-16T21:53:22.509Z,44.32
2018-07-16T21:55:51.112Z,44.73
2018-07-16T21:58:19.698Z,45.11
2018-07-16T22:00:48.707Z,44.11
2018-07-16T22:03:17.592Z,44.33
2018-07-16T22:05:46.424Z,44.58
2018-07-16T22:08:15.213Z,45.04
2018-07-16T22:10:43.895Z,45.41
2018-07-16T22:13:12.453Z,46.10
2018-07-16T22:15:40.992Z,46.56
2018-07-16T22:18:09.851Z,46.39
2018-07-16T22:20:38.399Z,46.64
2018-07-16T22:23:07.199Z,46.86
2018-07-16T22:25:35.736Z,46.75
2018-07-16T22:28:04.287Z,46.83
2018-07-16T22:30:32.883Z,46.89
2018-07-16T22:33:01.404Z,46.84
2018-07-16T22:35:29.967Z,47.24
2018-07-16T22:37:58.503Z,47.45
2018-07-16T22:40:27.047Z,47.50
2018-07-16T22:42:55.594Z,48.74
2018-07-16T22:45:24.122Z,48.84
2018-07-16T22:47:52.740Z,48.02
2018-07-16T22:52:49.090Z,47.63
2018-07-16T22:55:17.644Z,48.44
2018-07-16T22:57:46.180Z,48.27
2018-07-16T23:00:14.839Z,47.81
2018-07-16T23:02:43.363Z,48.43
2018-07-16T23:05:11.883Z,48.93
2018-07-16T23:07:40.475Z,49.84
2018-07-16T23:10:09.228Z,49.42
2018-07-16T23:12:38.235Z,48.82
2018-07-16T23:15:07.311Z,48.78
2018-07-16T23:17:35.848Z,49.36
2018-07-16T23:20:04.444Z,49.35
2018-07-16T23:22:37.598Z,49.53
2018-07-16T23:25:06.785Z,49.09
2018-07-16T23:27:35.315Z,49.40
2018-07-16T23:30:03.855Z,50.03
2018-07-16T23:32:32.390Z,50.30
2018-07-16T23:35:00.907Z,50.53
2018-07-16T23:37:29.566Z,51.04
2018-07-16T23:39:58.172Z,50.66
2018-07-16T23:42:33.052Z,50.76
2018-07-16T23:45:01.783Z,51.68
2018-07-16T23:47:30.572Z,51.03
2018-07-16T23:49:59.297Z,51.18
2018-07-16T23:52:28.406Z,51.70
2018-07-16T23:54:57.101Z,52.15
2018-07-16T23:57:25.664Z,51.27
2018-07-16T23:59:54.183Z,51.78
